createdAt,value
2019-05-07T00:01:23.525Z,11.73
2019-05-07T00:03:53.137Z,11.10
2019-05-07T00:06:23.062Z,12.93
2019-05-07T00:08:52.746Z,12.07
2019-05-07T00:11:22.422Z,13.70
2019-05-07T00:13:52.251Z,14.23
2019-05-07T00:16:22.388Z,10.93
2019-05-07T00:18:52.517Z,12.63
2019-05-07T00:21:23.312Z,10.83
2019-05-07T00:23:52.795Z,13.17
2019-05-07T00:26:22.630Z,12.33
2019-05-07T00:28:52.704Z,11.87
2019-05-07T00:31:23.326Z,9.97
2019-05-07T00:33:52.826Z,11.13
2019-05-07T00:36:42.416Z,13.33
2019-05-07T00:39:36.886Z,13.03
2019-05-07T00:42:15.778Z,12.70
2019-05-07T00:45:15.205Z,14.70
2019-05-07T00:47:32.966Z,12.63
2019-05-07T00:50:07.148Z,11.53
2019-05-07T00:52:36.450Z,13.13
2019-05-07T00:55:06.199Z,11.43
2019-05-07T00:57:35.529Z,11.77
2019-05-07T01:00:06.034Z,13.27
2019-05-07T01:02:35.365Z,12.33
2019-05-07T01:05:04.937Z,16.77
2019-05-07T01:07:34.262Z,14.13
2019-05-07T01:10:03.864Z,13.23
2019-05-07T01:12:33.276Z,13.97
2019-05-07T01:15:03.046Z,15.60
2019-05-07T01:17:33.559Z,15.20
2019-05-07T01:20:03.165Z,14.63
2019-05-07T01:22:33.158Z,15.03
2019-05-07T01:25:03.098Z,15.93
2019-05-07T01:27:32.502Z,17.37
2019-05-07T01:30:02.717Z,14.93
2019-05-07T01:32:42.509Z,16.37
2019-05-07T01:35:42.305Z,11.83
2019-05-07T01:38:12.309Z,16.33
2019-05-07T01:40:42.858Z,13.97
2019-05-07T01:43:12.277Z,16.53
2019-05-07T01:45:49.147Z,17.43
2019-05-07T01:48:16.071Z,16.80
2019-05-07T01:50:45.383Z,17.83
2019-05-07T01:53:14.723Z,16.03
2019-05-07T01:55:44.074Z,19.67
2019-05-07T01:58:13.445Z,16.47
2019-05-07T02:00:42.753Z,18.47
2019-05-07T02:03:27.259Z,20.17
2019-05-07T02:06:22.042Z,17.47
2019-05-07T02:09:10.224Z,19.87
2019-05-07T02:11:42.266Z,15.77
2019-05-07T02:14:13.679Z,18.20
2019-05-07T02:16:42.796Z,20.13
2019-05-07T02:19:12.629Z,18.53
2019-05-07T02:21:42.464Z,16.57
2019-05-07T02:24:12.582Z,19.83
2019-05-07T02:26:42.718Z,19.47
2019-05-07T02:29:12.395Z,18.13
2019-05-07T02:31:44.152Z,19.43
2019-05-07T02:34:14.191Z,21.80
2019-05-07T02:36:43.764Z,20.53
2019-05-07T02:39:25.331Z,29.53
2019-05-07T02:41:54.727Z,21.53
2019-05-07T02:44:24.051Z,21.57
2019-05-07T02:47:18.307Z,17.13
2019-05-07T02:49:54.979Z,17.87
2019-05-07T02:52:43.907Z,22.43
2019-05-07T02:55:25.370Z,22.13
2019-05-07T02:57:54.668Z,21.17
2019-05-07T03:00:24.510Z,21.67
2019-05-07T03:02:53.884Z,28.80
2019-05-07T03:05:25.602Z,29.53
2019-05-07T03:07:55.645Z,27.60
2019-05-07T03:10:24.919Z,23.80
2019-05-07T03:12:54.236Z,25.90
2019-05-07T03:15:24.285Z,20.80
2019-05-07T03:17:54.037Z,27.07
2019-05-07T03:20:27.937Z,23.87
2019-05-07T03:22:58.419Z,31.47
2019-05-07T03:25:33.844Z,28.03
2019-05-07T03:28:04.398Z,26.13
2019-05-07T03:30:46.674Z,24.97
2019-05-07T03:33:27.147Z,26.83
2019-05-07T03:35:57.797Z,35.47
2019-05-07T03:38:27.194Z,32.30
2019-05-07T03:40:56.541Z,28.70
2019-05-07T03:43:27.046Z,31.70
2019-05-07T03:46:23.483Z,33.53
2019-05-07T03:48:53.234Z,29.30
2019-05-07T03:51:23.736Z,31.90
2019-05-07T03:53:53.781Z,34.30
2019-05-07T03:56:23.811Z,32.90
2019-05-07T03:58:53.282Z,30.63
2019-05-07T04:01:24.062Z,32.30
2019-05-07T04:03:53.593Z,32.70
2019-05-07T04:06:23.504Z,35.30
2019-05-07T04:08:53.373Z,42.30
2019-05-07T04:11:23.302Z,35.37
2019-05-07T04:13:53.468Z,35.00
2019-05-07T04:16:23.980Z,31.77
2019-05-07T04:18:53.555Z,32.93
2019-05-07T04:21:23.324Z,40.20
2019-05-07T04:24:13.517Z,36.03
2019-05-07T04:26:45.775Z,34.50
2019-05-07T04:29:16.967Z,37.30
2019-05-07T04:31:46.359Z,34.47
2019-05-07T04:34:37.758Z,37.97
2019-05-07T04:37:07.190Z,34.40
2019-05-07T04:39:36.555Z,31.70
2019-05-07T04:42:05.942Z,37.00
2019-05-07T04:44:35.333Z,36.60
2019-05-07T04:47:04.823Z,34.17
2019-05-07T04:49:34.238Z,33.30
2019-05-07T04:52:11.283Z,40.53
2019-05-07T04:54:39.448Z,32.83
2019-05-07T04:57:25.619Z,31.43
2019-05-07T04:59:56.819Z,38.97
2019-05-07T05:02:44.455Z,34.77
2019-05-07T05:05:15.580Z,30.87
2019-05-07T05:07:44.965Z,31.00
2019-05-07T05:10:14.452Z,27.03
2019-05-07T05:12:43.828Z,29.67
2019-05-07T05:15:13.392Z,30.37
2019-05-07T05:17:50.455Z,30.20
2019-05-07T05:20:14.924Z,29.73
2019-05-07T05:23:03.503Z,28.10
2019-05-07T05:25:40.385Z,23.17
2019-05-07T05:28:12.235Z,25.57
2019-05-07T05:30:47.940Z,21.97
2019-05-07T05:33:17.251Z,25.20
2019-05-07T05:35:46.750Z,24.33
2019-05-07T05:38:16.125Z,24.47
2019-05-07T05:40:45.550Z,19.20
2019-05-07T05:43:24.910Z,19.37
2019-05-07T05:45:56.399Z,18.70
2019-05-07T05:48:26.721Z,18.73
2019-05-07T05:51:02.804Z,21.07
2019-05-07T05:53:37.986Z,20.70
2019-05-07T05:56:13.628Z,19.57
2019-05-07T05:58:52.712Z,21.10
2019-05-07T06:01:34.877Z,16.97
2019-05-07T06:04:12.719Z,17.70
2019-05-07T06:07:10.365Z,17.10
2019-05-07T06:09:42.252Z,18.37
2019-05-07T06:12:40.061Z,18.40
2019-05-07T06:15:37.816Z,17.93
2019-05-07T06:18:29.212Z,17.80
2019-05-07T06:21:08.095Z,12.20
2019-05-07T06:23:43.393Z,18.40
2019-05-07T06:26:12.843Z,11.67
2019-05-07T06:28:42.622Z,11.67
2019-05-07T06:31:12.630Z,12.03
2019-05-07T06:33:42.985Z,11.73
2019-05-07T06:36:12.633Z,12.83
2019-05-07T06:38:57.312Z,13.97
2019-05-07T06:41:44.318Z,14.17
2019-05-07T06:44:18.027Z,13.40
2019-05-07T06:46:52.496Z,14.30
2019-05-07T06:49:22.310Z,13.27
2019-05-07T06:51:52.798Z,10.83
2019-05-07T06:54:22.683Z,13.57
2019-05-07T06:56:52.433Z,16.80
2019-05-07T06:59:42.916Z,12.03
2019-05-07T07:02:29.860Z,9.37
2019-05-07T07:05:25.970Z,7.77
2019-05-07T07:08:05.973Z,13.30
2019-05-07T07:10:53.595Z,12.13
2019-05-07T07:13:24.004Z,12.47
2019-05-07T07:15:53.406Z,9.43
2019-05-07T07:18:23.181Z,9.27
2019-05-07T07:20:52.705Z,11.77
2019-05-07T07:23:22.668Z,8.50
2019-05-07T07:25:52.350Z,12.67
2019-05-07T07:28:22.048Z,6.87
2019-05-07T07:31:12.448Z,12.43
2019-05-07T07:33:43.669Z,9.17
2019-05-07T07:36:13.282Z,10.60
2019-05-07T07:38:42.575Z,7.03
2019-05-07T07:41:22.264Z,10.00
2019-05-07T07:43:52.613Z,7.13
2019-05-07T07:46:22.370Z,6.53
2019-05-07T07:49:04.430Z,7.30
2019-05-07T07:51:37.211Z,6.67
2019-05-07T07:53:53.719Z,6.53
2019-05-07T07:56:49.976Z,6.73
2019-05-07T07:59:44.190Z,6.17
2019-05-07T08:02:32.591Z,6.50
2019-05-07T08:05:02.182Z,5.37
2019-05-07T08:07:33.107Z,9.17
2019-05-07T08:10:02.744Z,6.50
2019-05-07T08:12:32.577Z,6.60
2019-05-07T08:15:14.602Z,8.90
2019-05-07T08:17:33.145Z,7.67
2019-05-07T08:20:02.678Z,5.67
2019-05-07T08:22:32.985Z,8.17
2019-05-07T08:25:04.143Z,4.87
2019-05-07T08:27:33.557Z,6.83
2019-05-07T08:30:04.151Z,8.07
2019-05-07T08:32:49.781Z,5.23
2019-05-07T08:35:41.939Z,6.90
2019-05-07T08:38:12.763Z,4.67
2019-05-07T08:40:42.246Z,5.47
2019-05-07T08:43:32.243Z,4.47
2019-05-07T08:46:19.580Z,4.63
2019-05-07T08:48:49.962Z,4.90
2019-05-07T08:51:19.324Z,4.47
2019-05-07T08:54:06.578Z,4.67
2019-05-07T08:56:36.931Z,4.93
2019-05-07T08:59:06.930Z,6.87
2019-05-07T09:01:37.903Z,4.77
2019-05-07T09:04:07.469Z,3.77
2019-05-07T09:06:36.870Z,4.77
2019-05-07T09:09:13.143Z,4.87
2019-05-07T09:11:43.193Z,3.83
2019-05-07T09:14:12.906Z,3.87
2019-05-07T09:16:43.440Z,4.05
2019-05-07T09:19:13.106Z,2.17
2019-05-07T09:21:43.077Z,5.00
2019-05-07T09:24:12.741Z,4.90
2019-05-07T09:26:52.365Z,3.47
2019-05-07T09:29:45.693Z,2.80
2019-05-07T09:32:26.987Z,4.33
2019-05-07T09:34:56.821Z,4.43
2019-05-07T09:37:27.616Z,4.70
2019-05-07T09:39:57.074Z,6.00
2019-05-07T09:42:27.176Z,3.98
2019-05-07T09:44:56.636Z,2.87
2019-05-07T09:47:26.234Z,5.53
2019-05-07T09:50:04.577Z,7.77
2019-05-07T09:52:26.521Z,6.97
2019-05-07T09:54:55.963Z,7.67
2019-05-07T09:57:31.202Z,6.37
2019-05-07T09:59:56.586Z,3.50
2019-05-07T10:02:27.093Z,3.37
2019-05-07T10:04:56.543Z,3.83
2019-05-07T10:07:25.898Z,5.67
2019-05-07T10:09:55.340Z,3.90
2019-05-07T10:12:36.175Z,4.17
2019-05-07T10:15:05.923Z,3.10
2019-05-07T10:17:57.020Z,3.10
2019-05-07T10:20:27.252Z,4.87
2019-05-07T10:22:56.633Z,3.03
2019-05-07T10:25:28.539Z,4.10
2019-05-07T10:27:58.231Z,5.73
2019-05-07T10:30:32.169Z,2.63
2019-05-07T10:33:04.180Z,2.83
2019-05-07T10:35:34.734Z,5.60
2019-05-07T10:38:04.608Z,2.93
2019-05-07T10:40:34.099Z,4.70
2019-05-07T10:43:03.658Z,2.40
2019-05-07T10:46:04.203Z,4.27
2019-05-07T10:49:08.149Z,3.57
2019-05-07T10:51:39.504Z,5.17
2019-05-07T10:54:08.911Z,3.97
2019-05-07T10:56:38.304Z,4.37
2019-05-07T10:59:12.222Z,4.87
2019-05-07T11:02:06.255Z,5.63
2019-05-07T11:04:42.589Z,2.60
2019-05-07T11:07:08.938Z,2.47
2019-05-07T11:09:38.277Z,3.03
2019-05-07T11:12:07.717Z,2.27
2019-05-07T11:14:37.109Z,3.80
2019-05-07T11:17:34.473Z,4.87
2019-05-07T11:20:05.600Z,3.53
2019-05-07T11:22:34.917Z,3.30
2019-05-07T11:25:04.529Z,4.57
2019-05-07T11:27:33.902Z,2.33
2019-05-07T11:30:03.199Z,3.93
2019-05-07T11:32:32.646Z,3.27
2019-05-07T11:35:03.095Z,4.83
2019-05-07T11:37:32.632Z,3.37
2019-05-07T11:40:03.164Z,3.97
2019-05-07T11:42:51.979Z,2.70
2019-05-07T11:45:27.286Z,3.53
2019-05-07T11:47:56.727Z,2.13
2019-05-07T11:50:42.237Z,3.13
2019-05-07T11:53:12.423Z,3.47
2019-05-07T11:55:42.171Z,5.97
2019-05-07T11:58:12.838Z,3.30
2019-05-07T12:01:03.865Z,4.60
2019-05-07T12:03:32.985Z,4.57
2019-05-07T12:06:02.303Z,3.13
2019-05-07T12:08:42.975Z,3.30
2019-05-07T12:11:09.104Z,3.20
2019-05-07T12:13:39.267Z,4.20
2019-05-07T12:16:12.062Z,2.50
2019-05-07T12:18:40.213Z,3.00
2019-05-07T12:21:18.334Z,3.87
2019-05-07T12:23:42.155Z,2.83
2019-05-07T12:26:12.564Z,4.37
2019-05-07T12:28:42.126Z,5.17
2019-05-07T12:31:36.559Z,2.80
2019-05-07T12:34:12.211Z,4.53
2019-05-07T12:36:41.592Z,3.17
2019-05-07T12:39:12.769Z,2.57
2019-05-07T12:41:42.267Z,1.80
2019-05-07T12:44:13.097Z,3.77
2019-05-07T12:46:42.641Z,3.17
2019-05-07T12:49:12.175Z,3.10
2019-05-07T12:51:49.103Z,4.03
2019-05-07T12:54:33.730Z,4.77
2019-05-07T12:57:02.624Z,3.33
2019-05-07T12:59:32.315Z,2.17
2019-05-07T13:02:21.644Z,2.80
2019-05-07T13:04:39.115Z,2.73
2019-05-07T13:07:27.452Z,3.83
2019-05-07T13:09:56.942Z,5.13
2019-05-07T13:12:26.781Z,2.52
2019-05-07T13:14:56.359Z,3.17
2019-05-07T13:17:25.699Z,4.00
2019-05-07T13:19:55.065Z,3.77
2019-05-07T13:22:24.539Z,4.23
2019-05-07T13:24:54.013Z,5.53
2019-05-07T13:27:23.519Z,3.27
2019-05-07T13:29:53.262Z,2.60
2019-05-07T13:32:24.510Z,2.17
2019-05-07T13:34:54.434Z,2.50
2019-05-07T13:37:27.035Z,4.37
2019-05-07T13:40:02.662Z,3.30
2019-05-07T13:42:43.907Z,1.93
2019-05-07T13:45:32.750Z,2.50
2019-05-07T13:48:12.149Z,3.23
2019-05-07T13:50:41.983Z,2.80
2019-05-07T13:53:12.326Z,4.17
2019-05-07T13:55:42.368Z,3.37
2019-05-07T13:58:13.999Z,2.93
2019-05-07T14:00:53.952Z,3.03
2019-05-07T14:03:23.267Z,2.20
2019-05-07T14:05:52.676Z,5.03
2019-05-07T14:08:23.817Z,2.30
2019-05-07T14:10:53.193Z,3.60
2019-05-07T14:13:23.125Z,4.30
2019-05-07T14:16:08.916Z,3.30
2019-05-07T14:18:58.039Z,4.37
2019-05-07T14:21:28.576Z,3.07
2019-05-07T14:23:57.981Z,2.37
2019-05-07T14:26:27.390Z,4.83
2019-05-07T14:28:56.736Z,3.00
2019-05-07T14:31:26.102Z,2.83
2019-05-07T14:34:04.011Z,3.90
2019-05-07T14:36:39.195Z,2.73
2019-05-07T14:39:09.184Z,4.50
2019-05-07T14:41:38.600Z,3.67
2019-05-07T14:44:14.473Z,2.60
2019-05-07T14:46:50.590Z,3.53
2019-05-07T14:49:15.128Z,3.53
2019-05-07T14:51:44.561Z,4.13
2019-05-07T14:54:14.002Z,2.57
2019-05-07T14:56:43.335Z,4.10
2019-05-07T14:59:12.863Z,2.37
2019-05-07T15:01:43.002Z,2.40
2019-05-07T15:04:13.023Z,3.47
2019-05-07T15:06:42.429Z,3.97
2019-05-07T15:09:12.233Z,2.77
2019-05-07T15:11:42.510Z,4.93
2019-05-07T15:14:12.293Z,2.90
2019-05-07T15:16:42.727Z,2.73
2019-05-07T15:19:12.618Z,3.53
2019-05-07T15:21:42.740Z,3.87
2019-05-07T15:24:14.208Z,4.30
2019-05-07T15:26:43.610Z,3.57
2019-05-07T15:29:14.362Z,3.27
2019-05-07T15:32:03.426Z,3.83
2019-05-07T15:34:33.165Z,3.20
2019-05-07T15:37:02.535Z,6.33
2019-05-07T15:39:32.784Z,3.13
2019-05-07T15:42:05.943Z,4.13
2019-05-07T15:44:35.387Z,2.90
2019-05-07T15:47:11.611Z,2.50
2019-05-07T15:49:41.789Z,2.03
2019-05-07T15:52:17.238Z,2.97
2019-05-07T15:54:46.727Z,2.70
2019-05-07T15:57:21.959Z,5.60
2019-05-07T15:59:52.712Z,5.00
2019-05-07T16:02:32.334Z,2.13
2019-05-07T16:05:02.199Z,4.47
2019-05-07T16:07:52.560Z,1.57
2019-05-07T16:10:23.206Z,2.07
2019-05-07T16:12:53.308Z,4.00
2019-05-07T16:15:22.698Z,3.80
2019-05-07T16:18:02.771Z,3.17
2019-05-07T16:20:32.692Z,2.90
2019-05-07T16:23:13.964Z,1.77
2019-05-07T16:25:33.825Z,6.53
2019-05-07T16:28:04.946Z,2.20
2019-05-07T16:30:34.494Z,3.50
2019-05-07T16:33:03.832Z,4.53
2019-05-07T16:35:33.458Z,4.37
2019-05-07T16:38:02.744Z,1.40
2019-05-07T16:40:32.471Z,3.60
2019-05-07T16:43:02.794Z,3.53
2019-05-07T16:45:32.296Z,1.87
2019-05-07T16:48:03.265Z,3.63
2019-05-07T16:50:32.924Z,3.40
2019-05-07T16:53:02.860Z,2.73
2019-05-07T16:55:37.016Z,3.43
2019-05-07T16:58:12.823Z,2.70
2019-05-07T17:00:45.338Z,3.97
2019-05-07T17:03:19.077Z,2.27
2019-05-07T17:05:48.522Z,2.37
2019-05-07T17:08:28.755Z,2.80
2019-05-07T17:10:58.214Z,3.63
2019-05-07T17:13:27.571Z,2.57
2019-05-07T17:15:58.607Z,4.33
2019-05-07T17:18:29.047Z,2.87
2019-05-07T17:20:58.778Z,3.37
2019-05-07T17:23:42.834Z,4.63
2019-05-07T17:25:59.567Z,3.83
2019-05-07T17:28:28.950Z,3.93
2019-05-07T17:30:58.485Z,3.60
2019-05-07T17:33:27.854Z,3.43
2019-05-07T17:35:57.283Z,4.27
2019-05-07T17:38:26.709Z,5.10
2019-05-07T17:41:09.690Z,3.80
2019-05-07T17:43:27.101Z,3.13
2019-05-07T17:45:56.450Z,4.43
2019-05-07T17:48:26.699Z,3.17
2019-05-07T17:51:17.944Z,5.23
2019-05-07T17:53:57.686Z,2.37
2019-05-07T17:56:18.338Z,4.27
2019-05-07T17:58:47.702Z,4.37
2019-05-07T18:01:17.786Z,5.00
2019-05-07T18:03:47.155Z,4.43
2019-05-07T18:06:16.550Z,4.13
2019-05-07T18:08:45.913Z,2.00
2019-05-07T18:11:21.043Z,4.20
2019-05-07T18:13:46.758Z,3.10
2019-05-07T18:16:23.777Z,3.70
2019-05-07T18:18:53.183Z,3.00
2019-05-07T18:21:22.654Z,3.83
2019-05-07T18:23:52.008Z,4.57
2019-05-07T18:26:29.918Z,6.00
2019-05-07T18:28:52.542Z,3.10
2019-05-07T18:31:37.405Z,4.20
2019-05-07T18:34:06.910Z,3.17
2019-05-07T18:36:36.270Z,2.80
2019-05-07T18:39:06.715Z,2.70
2019-05-07T18:41:36.117Z,4.57
2019-05-07T18:44:12.330Z,3.90
2019-05-07T18:46:36.636Z,3.60
2019-05-07T18:49:05.948Z,3.30
2019-05-07T18:51:35.309Z,3.87
2019-05-07T18:54:04.700Z,3.90
2019-05-07T18:56:34.160Z,3.80
2019-05-07T18:59:03.601Z,4.33
2019-05-07T19:01:35.331Z,80.47
2019-05-07T19:04:05.061Z,89.63
2019-05-07T19:06:34.421Z,25.80
2019-05-07T19:09:05.184Z,9.73
2019-05-07T19:11:35.112Z,9.23
2019-05-07T19:14:05.234Z,8.53
2019-05-07T19:16:39.682Z,6.23
2019-05-07T19:19:09.256Z,7.53
2019-05-07T19:21:39.156Z,6.33
2019-05-07T19:24:09.054Z,6.37
2019-05-07T19:26:38.800Z,5.70
2019-05-07T19:29:12.454Z,6.67
2019-05-07T19:31:42.501Z,4.93
2019-05-07T19:34:12.443Z,4.67
2019-05-07T19:36:42.457Z,3.70
2019-05-07T19:39:14.517Z,4.37
2019-05-07T19:41:44.030Z,4.87
2019-05-07T19:44:13.456Z,4.17
2019-05-07T19:46:42.895Z,4.80
2019-05-07T19:49:12.345Z,6.33
2019-05-07T19:51:42.849Z,7.53
2019-05-07T19:54:12.337Z,4.63
2019-05-07T19:56:42.607Z,4.27
2019-05-07T19:59:12.501Z,5.37
2019-05-07T20:01:49.915Z,7.40
2019-05-07T20:04:19.264Z,7.07
2019-05-07T20:06:48.663Z,6.63
2019-05-07T20:09:20.503Z,4.30
2019-05-07T20:11:52.124Z,4.10
2019-05-07T20:14:22.313Z,3.93
2019-05-07T20:16:53.179Z,5.83
2019-05-07T20:19:23.104Z,4.87
2019-05-07T20:21:52.524Z,4.93
2019-05-07T20:24:22.118Z,4.17
2019-05-07T20:26:52.618Z,3.23
2019-05-07T20:29:22.880Z,4.97
2019-05-07T20:31:53.294Z,4.07
2019-05-07T20:34:23.138Z,5.13
2019-05-07T20:36:52.478Z,2.70
2019-05-07T20:39:23.337Z,4.67
2019-05-07T20:41:52.859Z,8.07
2019-05-07T20:44:22.149Z,7.17
2019-05-07T20:46:53.410Z,3.33
2019-05-07T20:49:22.718Z,4.07
2019-05-07T20:51:52.640Z,4.00
2019-05-07T20:54:47.373Z,4.60
2019-05-07T20:57:22.612Z,3.30
2019-05-07T20:59:52.016Z,3.03
2019-05-07T21:02:23.235Z,3.43
2019-05-07T21:04:52.622Z,5.97
2019-05-07T21:07:22.318Z,4.97
2019-05-07T21:09:53.031Z,3.30
2019-05-07T21:12:22.667Z,3.77
2019-05-07T21:14:52.540Z,3.77
2019-05-07T21:17:22.713Z,5.07
2019-05-07T21:19:52.246Z,3.10
2019-05-07T21:22:22.603Z,2.90
2019-05-07T21:24:53.279Z,6.00
2019-05-07T21:27:22.701Z,3.90
2019-05-07T21:29:52.800Z,5.33
2019-05-07T21:32:23.066Z,5.40
2019-05-07T21:34:52.862Z,3.87
2019-05-07T21:37:22.907Z,5.83
2019-05-07T21:39:53.183Z,4.50
2019-05-07T21:42:23.006Z,3.07
2019-05-07T21:44:52.804Z,4.97
2019-05-07T21:47:22.447Z,6.93
2019-05-07T21:49:54.853Z,4.93
2019-05-07T21:52:23.755Z,4.60
2019-05-07T21:54:59.437Z,4.17
2019-05-07T21:57:57.135Z,6.70
2019-05-07T22:00:52.025Z,6.07
2019-05-07T22:03:23.028Z,3.43
2019-05-07T22:05:52.511Z,5.97
2019-05-07T22:08:22.040Z,2.97
2019-05-07T22:10:51.553Z,5.57
2019-05-07T22:13:22.045Z,4.43
2019-05-07T22:15:52.183Z,3.27
2019-05-07T22:18:22.724Z,3.37
2019-05-07T22:20:52.325Z,5.97
2019-05-07T22:23:24.492Z,7.33
2019-05-07T22:25:52.801Z,6.07
2019-05-07T22:28:22.494Z,5.13
2019-05-07T22:30:59.572Z,5.40
2019-05-07T22:33:36.369Z,5.77
2019-05-07T22:36:05.769Z,3.90
2019-05-07T22:38:35.160Z,7.40
2019-05-07T22:41:04.432Z,7.07
2019-05-07T22:43:33.814Z,5.37
2019-05-07T22:46:03.204Z,7.20
2019-05-07T22:48:32.586Z,6.37
2019-05-07T22:51:02.731Z,7.27
2019-05-07T22:53:32.861Z,4.30
2019-05-07T22:56:03.169Z,5.53
2019-05-07T22:58:36.803Z,6.77
2019-05-07T23:01:08.356Z,4.57
2019-05-07T23:03:38.094Z,5.73
2019-05-07T23:06:07.675Z,4.53
2019-05-07T23:08:42.386Z,6.77
2019-05-07T23:11:12.236Z,6.03
2019-05-07T23:13:42.721Z,4.83
2019-05-07T23:16:12.753Z,4.30
2019-05-07T23:18:42.926Z,5.30
2019-05-07T23:21:12.444Z,4.50
2019-05-07T23:23:42.337Z,3.97
2019-05-07T23:26:14.496Z,4.37
2019-05-07T23:28:42.758Z,4.90
2019-05-07T23:31:12.393Z,7.30
2019-05-07T23:33:41.686Z,6.43
2019-05-07T23:36:12.907Z,7.40
2019-05-07T23:38:42.649Z,6.00
2019-05-07T23:41:42.091Z,5.23
2019-05-07T23:44:16.577Z,5.17
2019-05-07T23:46:45.935Z,5.37
2019-05-07T23:49:15.348Z,5.27
2019-05-07T23:51:44.956Z,6.00
2019-05-07T23:54:14.267Z,7.30
2019-05-07T23:56:43.582Z,6.80
2019-05-07T23:59:15.048Z,4.10
